createdAt,value
2018-11-01T00:01:31.731Z,6.72
2018-11-01T00:04:00.409Z,6.67
2018-11-01T00:06:29.002Z,6.70
2018-11-01T00:08:57.529Z,6.70
2018-11-01T00:11:26.109Z,6.71
2018-11-01T00:13:54.709Z,6.68
2018-11-01T00:16:23.319Z,6.78
2018-11-01T00:18:52.203Z,6.75
2018-11-01T00:21:20.772Z,6.76
2018-11-01T00:23:49.311Z,6.68
2018-11-01T00:26:17.924Z,6.70
2018-11-01T00:28:46.756Z,6.70
2018-11-01T00:31:15.336Z,6.69
2018-11-01T00:33:43.842Z,6.71
2018-11-01T00:36:12.378Z,6.69
2018-11-01T00:38:40.899Z,6.73
2018-11-01T00:41:09.467Z,6.69
2018-11-01T00:43:37.979Z,6.71
2018-11-01T00:46:06.998Z,6.64
2018-11-01T00:48:35.559Z,6.64
2018-11-01T00:51:04.125Z,6.68
2018-11-01T00:53:32.687Z,6.66
2018-11-01T00:56:01.217Z,6.69
2018-11-01T00:58:29.795Z,6.62
2018-11-01T01:00:58.311Z,6.50
2018-11-01T01:03:26.836Z,6.51
2018-11-01T01:05:55.388Z,6.53
2018-11-01T01:08:23.989Z,6.49
2018-11-01T01:10:52.546Z,6.48
2018-11-01T01:13:21.076Z,6.42
2018-11-01T01:15:49.683Z,6.42
2018-11-01T01:18:18.253Z,6.46
2018-11-01T01:20:46.785Z,6.53
2018-11-01T01:23:15.328Z,6.55
2018-11-01T01:25:43.844Z,6.53
2018-11-01T01:28:12.397Z,6.47
2018-11-01T01:30:40.915Z,6.52
2018-11-01T01:33:09.456Z,6.49
2018-11-01T01:35:37.986Z,6.50
2018-11-01T01:38:06.678Z,6.52
2018-11-01T01:40:35.219Z,6.53
2018-11-01T01:43:03.798Z,6.46
2018-11-01T01:45:32.343Z,6.53
2018-11-01T01:48:00.906Z,6.51
2018-11-01T01:50:29.508Z,6.51
2018-11-01T01:52:58.030Z,6.51
2018-11-01T01:55:26.542Z,6.47
2018-11-01T01:57:55.096Z,6.50
2018-11-01T02:00:23.732Z,6.40
2018-11-01T02:02:53.025Z,6.41
2018-11-01T02:05:21.599Z,6.39
2018-11-01T02:07:50.272Z,6.39
2018-11-01T02:10:19.279Z,6.26
2018-11-01T02:12:47.899Z,6.33
2018-11-01T02:15:18.716Z,6.34
2018-11-01T02:17:47.339Z,6.35
2018-11-01T02:20:17.079Z,6.31
2018-11-01T02:22:46.211Z,6.27
2018-11-01T02:25:14.782Z,6.27
2018-11-01T02:27:48.781Z,6.35
2018-11-01T02:30:18.073Z,6.29
2018-11-01T02:32:47.000Z,6.35
2018-11-01T02:35:17.828Z,6.39
2018-11-01T02:37:46.737Z,6.29
2018-11-01T02:40:15.624Z,6.32
2018-11-01T02:42:44.502Z,6.28
2018-11-01T02:45:13.920Z,6.24
2018-11-01T02:47:42.563Z,6.09
2018-11-01T02:50:12.273Z,6.08
2018-11-01T02:52:41.006Z,6.00
2018-11-01T02:55:10.192Z,6.05
2018-11-01T02:57:38.789Z,6.04
2018-11-01T03:00:10.361Z,5.98
2018-11-01T03:02:38.939Z,6.08
2018-11-01T03:05:08.005Z,6.03
2018-11-01T03:07:36.557Z,6.10
2018-11-01T03:10:06.323Z,6.08
2018-11-01T03:12:34.832Z,6.12
2018-11-01T03:15:03.445Z,6.12
2018-11-01T03:17:31.953Z,6.13
2018-11-01T03:20:00.561Z,6.03
2018-11-01T03:22:29.081Z,6.09
2018-11-01T03:24:57.638Z,6.06
2018-11-01T03:27:26.173Z,6.13
2018-11-01T03:29:54.722Z,6.08
2018-11-01T03:32:23.266Z,6.06
2018-11-01T03:34:51.828Z,6.10
2018-11-01T03:37:20.403Z,6.02
2018-11-01T03:39:48.964Z,6.01
2018-11-01T03:42:17.551Z,5.93
2018-11-01T03:44:46.167Z,5.89
2018-11-01T03:47:14.752Z,5.82
2018-11-01T03:49:43.312Z,5.83
2018-11-01T03:52:11.857Z,5.84
2018-11-01T03:54:40.435Z,5.84
2018-11-01T03:57:09.021Z,5.81
2018-11-01T03:59:37.562Z,5.64
2018-11-01T04:02:06.493Z,5.50
2018-11-01T04:04:35.035Z,5.44
2018-11-01T04:07:03.621Z,5.45
2018-11-01T04:09:32.186Z,5.45
2018-11-01T04:12:00.720Z,5.42
2018-11-01T04:14:29.299Z,5.43
2018-11-01T04:16:57.931Z,5.47
2018-11-01T04:19:26.473Z,5.41
2018-11-01T04:22:02.353Z,5.48
2018-11-01T04:24:30.907Z,5.53
2018-11-01T04:26:59.448Z,5.52
2018-11-01T04:29:27.921Z,5.56
2018-11-01T04:31:56.374Z,5.54
2018-11-01T04:34:25.043Z,5.48
2018-11-01T04:36:53.517Z,5.39
2018-11-01T04:39:22.025Z,5.47
2018-11-01T04:41:50.513Z,5.50
2018-11-01T04:44:19.082Z,5.51
2018-11-01T04:46:47.556Z,5.41
2018-11-01T04:49:16.258Z,5.51
2018-11-01T04:51:44.748Z,5.50
2018-11-01T04:54:13.757Z,5.48
2018-11-01T04:56:42.257Z,5.49
2018-11-01T04:59:10.769Z,5.48
2018-11-01T05:01:39.283Z,5.48
2018-11-01T05:04:07.785Z,5.54
2018-11-01T05:06:36.318Z,5.51
2018-11-01T05:09:06.355Z,5.52
2018-11-01T05:11:34.854Z,5.54
2018-11-01T05:14:03.347Z,5.61
2018-11-01T05:16:31.868Z,5.59
2018-11-01T05:19:00.338Z,5.62
2018-11-01T05:21:28.827Z,5.60
2018-11-01T05:23:57.408Z,5.65
2018-11-01T05:26:25.894Z,5.70
2018-11-01T05:28:54.392Z,5.72
2018-11-01T05:31:22.912Z,5.78
2018-11-01T05:33:51.408Z,5.88
2018-11-01T05:36:19.913Z,5.82
2018-11-01T05:38:48.617Z,5.93
2018-11-01T05:41:17.106Z,5.96
2018-11-01T05:43:45.576Z,5.99
2018-11-01T05:46:14.078Z,6.10
2018-11-01T05:48:42.556Z,6.07
2018-11-01T05:51:11.117Z,6.19
2018-11-01T05:53:39.611Z,6.19
2018-11-01T05:56:08.105Z,6.23
2018-11-01T05:58:36.591Z,6.24
2018-11-01T06:01:07.516Z,6.26
2018-11-01T06:03:36.024Z,6.30
2018-11-01T06:06:04.590Z,6.33
2018-11-01T06:08:35.148Z,6.35
2018-11-01T06:11:03.851Z,6.40
2018-11-01T06:13:32.310Z,6.39
2018-11-01T06:16:01.252Z,6.38
2018-11-01T06:18:29.795Z,6.40
2018-11-01T06:20:58.316Z,6.42
2018-11-01T06:23:26.777Z,6.44
2018-11-01T06:25:57.292Z,6.38
2018-11-01T06:28:28.721Z,6.50
2018-11-01T06:30:57.370Z,6.45
2018-11-01T06:33:25.832Z,6.57
2018-11-01T06:35:56.179Z,6.65
2018-11-01T06:38:24.670Z,6.73
2018-11-01T06:40:53.170Z,6.80
2018-11-01T06:43:27.371Z,6.81
2018-11-01T06:45:56.306Z,6.90
2018-11-01T06:48:28.347Z,6.91
2018-11-01T06:50:58.966Z,7.03
2018-11-01T06:53:27.587Z,7.03
2018-11-01T06:55:56.049Z,7.17
2018-11-01T06:58:24.622Z,7.17
2018-11-01T07:00:53.144Z,7.40
2018-11-01T07:03:35.408Z,7.48
2018-11-01T07:06:22.925Z,7.56
2018-11-01T07:08:52.336Z,7.60
2018-11-01T07:11:20.883Z,7.71
2018-11-01T07:13:49.404Z,7.85
2018-11-01T07:19:10.973Z,7.90
2018-11-01T07:22:08.200Z,8.11
2018-11-01T07:24:47.820Z,7.98
2018-11-01T07:44:48.381Z,8.51
2018-11-01T07:47:17.137Z,8.57
2018-11-01T07:49:45.661Z,8.63
2018-11-01T07:52:14.144Z,8.72
2018-11-01T07:55:03.497Z,8.88
2018-11-01T07:57:32.392Z,8.93
2018-11-01T08:00:00.954Z,9.18
2018-11-01T08:02:29.453Z,9.35
2018-11-01T08:04:57.991Z,9.63
2018-11-01T08:07:26.473Z,9.76
2018-11-01T08:09:54.985Z,10.06
2018-11-01T08:12:23.490Z,10.23
2018-11-01T08:14:52.036Z,10.41
2018-11-01T08:17:20.516Z,10.47
2018-11-01T08:19:51.592Z,10.52
2018-11-01T08:22:26.968Z,10.28
2018-11-01T08:25:00.468Z,10.13
2018-11-01T08:27:35.057Z,10.44
2018-11-01T08:30:09.375Z,10.61
2018-11-01T08:32:41.476Z,10.69
2018-11-01T08:35:14.873Z,10.81
2018-11-01T08:37:48.166Z,10.88
2018-11-01T08:40:20.034Z,11.00
2018-11-01T08:42:54.040Z,11.06
2018-11-01T08:45:27.801Z,11.09
2018-11-01T08:48:02.367Z,11.08
2018-11-01T08:50:36.275Z,11.03
2018-11-01T08:53:11.061Z,11.07
2018-11-01T08:55:43.947Z,11.18
2018-11-01T08:58:15.379Z,11.34
2018-11-01T09:00:45.812Z,11.42
2018-11-01T09:03:14.859Z,11.50
2018-11-01T09:05:43.527Z,11.62
2018-11-01T09:08:28.432Z,11.68
2018-11-01T09:10:57.052Z,11.77
2018-11-01T09:13:25.584Z,11.95
2018-11-01T09:15:54.030Z,12.13
2018-11-01T09:18:22.520Z,12.24
2018-11-01T09:26:54.082Z,12.57
2018-11-01T09:29:22.503Z,12.82
2018-11-01T09:31:51.015Z,12.99
2018-11-01T09:34:19.538Z,13.06
2018-11-01T09:36:47.985Z,13.25
2018-11-01T09:39:16.526Z,13.52
2018-11-01T09:41:45.039Z,13.77
2018-11-01T09:44:13.529Z,14.03
2018-11-01T09:52:48.758Z,14.39
2018-11-01T09:55:22.228Z,14.33
2018-11-01T09:57:50.856Z,14.48
2018-11-01T10:00:22.357Z,14.39
2018-11-01T10:02:54.320Z,14.36
2018-11-01T10:05:27.206Z,14.27
2018-11-01T10:07:55.926Z,14.13
2018-11-01T10:10:24.423Z,14.07
2018-11-01T10:12:52.890Z,14.01
2018-11-01T10:15:21.485Z,13.91
2018-11-01T10:20:53.302Z,13.94
2018-11-01T10:23:21.774Z,13.86
2018-11-01T10:25:50.281Z,13.78
2018-11-01T10:28:18.780Z,13.81
2018-11-01T10:30:47.304Z,13.63
2018-11-01T10:33:15.760Z,13.58
2018-11-01T10:35:44.253Z,13.60
2018-11-01T10:38:12.743Z,13.66
2018-11-01T10:40:44.601Z,13.66
2018-11-01T10:43:35.703Z,13.68
2018-11-01T10:46:04.234Z,13.86
2018-11-01T10:48:39.070Z,13.96
2018-11-01T10:51:07.936Z,14.00
2018-11-01T10:53:36.623Z,13.90
2018-11-01T10:56:09.827Z,13.87
2018-11-01T10:58:42.040Z,13.92
2018-11-01T11:01:21.127Z,13.97
2018-11-01T11:03:50.820Z,13.95
2018-11-01T11:06:19.376Z,13.85
2018-11-01T11:08:47.835Z,13.95
2018-11-01T11:11:16.343Z,14.02
2018-11-01T11:13:58.767Z,14.08
2018-11-01T11:16:35.132Z,14.11
2018-11-01T11:19:10.609Z,14.10
2018-11-01T11:21:50.488Z,14.20
2018-11-01T11:24:26.609Z,14.18
2018-11-01T11:26:57.625Z,14.27
2018-11-01T11:29:28.464Z,14.26
2018-11-01T11:31:57.106Z,14.19
2018-11-01T11:34:25.845Z,14.27
2018-11-01T11:36:54.363Z,14.40
2018-11-01T11:39:22.950Z,14.45
2018-11-01T11:41:51.435Z,14.50
2018-11-01T11:44:19.910Z,14.57
2018-11-01T11:46:48.442Z,14.53
2018-11-01T11:49:38.961Z,14.35
2018-11-01T11:52:20.124Z,14.10
2018-11-01T11:55:02.009Z,13.68
2018-11-01T11:57:36.378Z,13.56
2018-11-01T12:00:05.886Z,13.51
2018-11-01T12:02:34.638Z,13.47
2018-11-01T12:05:07.005Z,13.37
2018-11-01T12:07:47.264Z,13.59
2018-11-01T12:10:19.178Z,13.70
2018-11-01T12:12:47.689Z,13.86
2018-11-01T12:15:16.190Z,13.86
2018-11-01T12:17:47.005Z,13.84
2018-11-01T12:20:23.789Z,13.97
2018-11-01T12:22:52.643Z,14.09
2018-11-01T12:25:21.131Z,14.01
2018-11-01T12:27:49.655Z,14.04
2018-11-01T12:30:18.121Z,13.99
2018-11-01T12:32:50.488Z,14.14
2018-11-01T12:37:57.070Z,14.45
2018-11-01T12:40:27.807Z,14.48
2018-11-01T12:43:03.264Z,14.54
2018-11-01T12:45:33.773Z,14.41
2018-11-01T12:48:05.539Z,14.33
2018-11-01T12:50:38.152Z,14.45
2018-11-01T12:53:11.012Z,14.38
2018-11-01T12:55:44.303Z,14.47
2018-11-01T12:58:15.660Z,14.39
2018-11-01T13:00:46.486Z,14.47
2018-11-01T13:03:15.573Z,14.51
2018-11-01T13:05:46.300Z,14.54
2018-11-01T13:08:15.999Z,14.76
2018-11-01T13:10:45.458Z,14.90
2018-11-01T13:16:04.613Z,14.91
2018-11-01T13:18:38.412Z,14.88
2018-11-01T13:21:13.132Z,14.80
2018-11-01T13:23:44.590Z,14.90
2018-11-01T13:26:13.875Z,14.93
2018-11-01T13:28:43.036Z,14.94
2018-11-01T13:31:12.047Z,15.09
2018-11-01T13:33:41.183Z,15.10
2018-11-01T13:36:15.195Z,15.10
2018-11-01T13:38:44.558Z,15.03
2018-11-01T13:41:20.082Z,14.88
2018-11-01T13:43:48.627Z,14.86
2018-11-01T13:46:17.203Z,14.97
2018-11-01T13:48:57.842Z,15.05
2018-11-01T13:51:28.888Z,14.94
2018-11-01T13:54:00.233Z,14.87
2018-11-01T13:56:43.205Z,14.69
2018-11-01T13:59:11.882Z,14.59
2018-11-01T14:01:40.446Z,14.42
2018-11-01T14:04:08.924Z,14.57
2018-11-01T14:06:37.447Z,14.64
2018-11-01T14:09:08.283Z,14.65
2018-11-01T14:11:40.832Z,14.66
2018-11-01T14:14:12.931Z,14.61
2018-11-01T14:16:46.387Z,14.49
2018-11-01T14:19:21.596Z,14.47
2018-11-01T14:21:50.267Z,14.48
2018-11-01T14:24:18.811Z,14.42
2018-11-01T14:26:50.661Z,14.31
2018-11-01T14:29:24.386Z,14.24
2018-11-01T14:31:57.611Z,14.26
2018-11-01T14:34:32.241Z,14.19
2018-11-01T14:37:05.025Z,14.19
2018-11-01T14:43:12.081Z,13.92
2018-11-01T14:45:42.217Z,13.91
2018-11-01T14:51:32.435Z,13.61
2018-11-01T14:54:04.988Z,13.70
2018-11-01T14:56:43.880Z,13.54
2018-11-01T14:59:13.137Z,13.37
2018-11-01T15:01:40.632Z,13.15
2018-11-01T15:04:12.784Z,13.22
2018-11-01T15:06:44.403Z,13.13
2018-11-01T15:09:13.822Z,13.17
2018-11-01T15:11:42.828Z,13.15
2018-11-01T15:14:11.371Z,13.15
2018-11-01T15:16:40.228Z,13.02
2018-11-01T15:19:24.787Z,12.96
2018-11-01T15:22:04.503Z,12.90
2018-11-01T15:24:35.849Z,12.83
2018-11-01T15:27:04.539Z,12.78
2018-11-01T15:29:33.048Z,12.66
2018-11-01T15:32:03.369Z,12.67
2018-11-01T15:34:33.043Z,12.61
2018-11-01T15:37:02.196Z,12.62
2018-11-01T15:39:31.576Z,12.53
2018-11-01T15:42:00.118Z,12.41
2018-11-01T15:44:28.610Z,12.23
2018-11-01T15:46:57.079Z,12.23
2018-11-01T15:49:25.558Z,12.16
2018-11-01T15:51:54.068Z,12.03
2018-11-01T15:54:22.558Z,11.85
2018-11-01T15:56:51.067Z,11.83
2018-11-01T15:59:19.654Z,11.73
2018-11-01T16:01:48.109Z,11.71
2018-11-01T16:04:16.639Z,11.66
2018-11-01T16:06:45.173Z,11.63
2018-11-01T16:09:14.364Z,11.66
2018-11-01T16:11:43.159Z,11.36
2018-11-01T16:14:12.022Z,11.22
2018-11-01T16:16:40.838Z,11.32
2018-11-01T16:19:10.274Z,11.37
2018-11-01T16:21:39.034Z,11.36
2018-11-01T16:24:07.622Z,11.28
2018-11-01T16:26:36.127Z,11.30
2018-11-01T16:29:04.667Z,11.16
2018-11-01T16:31:33.164Z,11.15
2018-11-01T16:34:06.641Z,11.17
2018-11-01T16:36:35.245Z,11.24
2018-11-01T16:39:05.249Z,11.18
2018-11-01T16:41:33.720Z,11.17
2018-11-01T16:44:02.230Z,11.13
2018-11-01T16:46:30.711Z,11.12
2018-11-01T16:48:59.277Z,11.11
2018-11-01T16:51:28.039Z,11.08
2018-11-01T16:53:56.555Z,10.94
2018-11-01T16:56:25.044Z,10.91
2018-11-01T16:58:53.551Z,10.75
2018-11-01T17:01:22.068Z,10.75
2018-11-01T17:03:50.602Z,10.72
2018-11-01T17:06:19.082Z,10.72
2018-11-01T17:08:47.640Z,10.64
2018-11-01T17:11:16.152Z,10.68
2018-11-01T17:13:44.690Z,10.59
2018-11-01T17:16:13.168Z,10.52
2018-11-01T17:18:41.787Z,10.44
2018-11-01T17:21:10.313Z,10.36
2018-11-01T17:23:38.821Z,10.32
2018-11-01T17:26:07.320Z,10.28
2018-11-01T17:28:35.888Z,10.35
2018-11-01T17:31:04.462Z,10.16
2018-11-01T17:33:33.021Z,10.06
2018-11-01T17:36:04.221Z,9.98
2018-11-01T17:38:57.377Z,9.83
2018-11-01T17:41:25.880Z,9.75
2018-11-01T17:43:54.442Z,9.72
2018-11-01T17:46:22.996Z,9.67
2018-11-01T17:48:51.512Z,9.66
2018-11-01T17:51:20.055Z,9.50
2018-11-01T17:53:48.473Z,9.45
2018-11-01T17:56:17.165Z,9.31
2018-11-01T17:58:45.699Z,9.34
2018-11-01T18:01:14.181Z,9.47
2018-11-01T18:03:42.869Z,9.55
2018-11-01T18:06:11.697Z,9.47
2018-11-01T18:08:40.237Z,9.39
2018-11-01T18:11:08.733Z,9.46
2018-11-01T18:13:37.282Z,9.61
2018-11-01T18:16:06.042Z,9.33
2018-11-01T18:18:34.643Z,9.50
2018-11-01T18:21:03.181Z,9.65
2018-11-01T18:23:31.686Z,9.53
2018-11-01T18:26:01.401Z,9.26
2018-11-01T18:28:38.741Z,9.08
2018-11-01T18:31:12.633Z,9.17
2018-11-01T18:33:49.908Z,9.15
2018-11-01T18:36:21.356Z,9.04
2018-11-01T18:38:54.147Z,9.03
2018-11-01T18:41:26.706Z,8.82
2018-11-01T18:43:58.549Z,8.89
2018-11-01T18:46:32.087Z,8.83
2018-11-01T18:49:00.738Z,8.66
2018-11-01T18:51:29.194Z,8.67
2018-11-01T18:53:57.835Z,8.70
2018-11-01T18:56:26.296Z,8.61
2018-11-01T18:58:54.799Z,8.50
2018-11-01T19:01:23.282Z,8.44
2018-11-01T19:03:51.796Z,8.41
2018-11-01T19:06:20.303Z,8.33
2018-11-01T19:08:48.899Z,8.23
2018-11-01T19:11:17.402Z,8.16
2018-11-01T19:13:46.064Z,8.17
2018-11-01T19:16:14.455Z,8.04
2018-11-01T19:18:42.965Z,8.13
2018-11-01T19:21:11.438Z,8.05
2018-11-01T19:23:39.970Z,7.98
2018-11-01T19:26:08.481Z,7.86
2018-11-01T19:28:37.051Z,7.81
2018-11-01T19:31:05.843Z,7.87
2018-11-01T19:33:34.374Z,7.81
2018-11-01T19:36:02.855Z,7.85
2018-11-01T19:38:31.414Z,7.87
2018-11-01T19:40:59.948Z,7.84
2018-11-01T19:43:28.458Z,7.85
2018-11-01T19:45:56.934Z,7.74
2018-11-01T19:48:25.510Z,7.73
2018-11-01T19:50:53.955Z,7.78
2018-11-01T19:53:22.459Z,7.79
2018-11-01T19:55:51.014Z,7.81
2018-11-01T19:58:19.485Z,7.81
2018-11-01T20:00:48.028Z,7.82
2018-11-01T20:03:16.530Z,7.78
2018-11-01T20:05:45.033Z,7.74
2018-11-01T20:08:13.636Z,7.71
2018-11-01T20:10:42.859Z,7.68
2018-11-01T20:13:11.403Z,7.71
2018-11-01T20:15:39.907Z,7.66
2018-11-01T20:18:14.178Z,7.57
2018-11-01T20:20:42.720Z,7.58
2018-11-01T20:23:11.219Z,7.51
2018-11-01T20:25:47.063Z,7.45
2018-11-01T20:28:21.747Z,7.39
2018-11-01T20:30:50.279Z,7.35
2018-11-01T20:33:18.817Z,7.34
2018-11-01T20:35:47.335Z,7.33
2018-11-01T20:38:15.828Z,7.12
2018-11-01T20:40:44.375Z,6.96
2018-11-01T20:43:14.491Z,6.94
2018-11-01T20:45:43.108Z,6.98
2018-11-01T20:48:11.596Z,7.05
2018-11-01T20:50:40.130Z,7.02
2018-11-01T20:53:08.643Z,6.95
2018-11-01T20:55:37.183Z,7.03
2018-11-01T20:58:05.780Z,6.93
2018-11-01T21:00:34.840Z,6.89
2018-11-01T21:03:03.435Z,6.80
2018-11-01T21:05:31.971Z,6.72
2018-11-01T21:08:00.606Z,6.61
2018-11-01T21:10:29.113Z,6.62
2018-11-01T21:12:57.631Z,6.59
2018-11-01T21:15:26.177Z,6.61
2018-11-01T21:17:54.658Z,6.58
2018-11-01T21:20:27.356Z,6.60
2018-11-01T21:22:55.889Z,6.63
2018-11-01T21:25:26.796Z,6.55
2018-11-01T21:27:57.285Z,6.48
2018-11-01T21:30:25.946Z,6.38
2018-11-01T21:32:54.430Z,6.34
2018-11-01T21:35:23.020Z,6.25
2018-11-01T21:37:55.487Z,6.20
2018-11-01T21:40:28.309Z,6.20
2018-11-01T21:42:56.799Z,6.33
2018-11-01T21:45:25.385Z,6.33
2018-11-01T21:47:53.914Z,6.39
2018-11-01T21:50:22.389Z,6.40
2018-11-01T21:52:50.957Z,6.40
2018-11-01T21:55:19.435Z,6.38
2018-11-01T21:57:49.306Z,6.43
2018-11-01T22:00:17.817Z,6.37
2018-11-01T22:03:12.584Z,6.39
2018-11-01T22:05:41.121Z,6.44
2018-11-01T22:08:09.603Z,6.45
2018-11-01T22:10:38.125Z,6.47
2018-11-01T22:13:06.597Z,6.52
2018-11-01T22:15:35.089Z,6.47
2018-11-01T22:18:03.561Z,6.50
2018-11-01T22:20:32.070Z,6.50
2018-11-01T22:23:00.572Z,6.50
2018-11-01T22:28:33.087Z,6.55
2018-11-01T22:31:01.554Z,6.54
2018-11-01T22:33:30.055Z,6.54
2018-11-01T22:36:03.665Z,6.59
2018-11-01T22:38:34.029Z,6.47
2018-11-01T22:41:20.554Z,6.40
2018-11-01T22:43:51.231Z,6.28
2018-11-01T22:46:19.758Z,6.25
2018-11-01T22:48:48.273Z,6.15
2018-11-01T22:51:17.098Z,6.21
2018-11-01T22:53:45.755Z,6.26
2018-11-01T22:56:14.316Z,6.21
2018-11-01T22:58:42.797Z,6.31
2018-11-01T23:01:11.328Z,6.18
2018-11-01T23:03:39.828Z,6.13
2018-11-01T23:06:11.940Z,6.05
2018-11-01T23:08:40.464Z,6.07
2018-11-01T23:11:09.002Z,6.20
2018-11-01T23:13:37.482Z,6.08
2018-11-01T23:16:06.060Z,5.90
2018-11-01T23:18:34.546Z,5.83
2018-11-01T23:21:03.053Z,5.92
2018-11-01T23:23:31.549Z,5.76
2018-11-01T23:26:00.163Z,5.63
2018-11-01T23:28:28.555Z,5.34
2018-11-01T23:30:57.095Z,5.43
2018-11-01T23:33:25.595Z,5.43
2018-11-01T23:35:56.536Z,5.37
2018-11-01T23:38:30.379Z,5.47
2018-11-01T23:41:04.061Z,5.50
2018-11-01T23:43:38.331Z,5.41
2018-11-01T23:46:15.677Z,5.39
2018-11-01T23:48:48.491Z,5.38
2018-11-01T23:51:18.896Z,5.39
2018-11-01T23:53:49.223Z,5.32
2018-11-01T23:56:18.192Z,5.34
2018-11-01T23:58:46.686Z,5.44
